createdAt,value
2022-10-31T00:07:57.441Z,10.20
2022-10-31T00:18:20.296Z,10.40
2022-10-31T00:28:45.340Z,10.70
2022-10-31T00:39:10.590Z,10.20
2022-10-31T00:49:31.765Z,10.40
2022-10-31T00:59:54.670Z,10.60
2022-10-31T01:10:19.285Z,10.70
2022-10-31T01:20:42.241Z,11.10
2022-10-31T01:31:05.257Z,11.00
2022-10-31T01:41:31.485Z,11.10
2022-10-31T01:51:59.041Z,11.40
2022-10-31T02:02:22.245Z,11.30
2022-10-31T02:12:44.885Z,11.40
2022-10-31T02:23:47.830Z,11.20
2022-10-31T02:34:20.032Z,11.00
2022-10-31T02:44:49.841Z,11.10
2022-10-31T02:55:34.365Z,10.90
2022-10-31T03:06:02.518Z,10.80
2022-10-31T03:16:34.249Z,10.90
2022-10-31T03:26:59.762Z,10.90
2022-10-31T03:37:25.387Z,10.80
2022-10-31T03:47:48.290Z,10.90
2022-10-31T04:08:47.073Z,11.20
2022-10-31T04:19:13.688Z,11.20
2022-10-31T04:29:35.396Z,11.10
2022-10-31T04:39:58.182Z,11.00
2022-10-31T04:50:38.322Z,11.00
2022-10-31T05:01:01.710Z,11.00
2022-10-31T05:11:23.568Z,11.00
2022-10-31T05:21:49.497Z,11.00
2022-10-31T05:32:11.389Z,10.90
2022-10-31T05:43:00.812Z,10.80
2022-10-31T05:53:22.651Z,10.60
2022-10-31T06:03:45.988Z,10.70
2022-10-31T06:14:11.320Z,10.80
2022-10-31T06:24:47.585Z,10.80
2022-10-31T06:35:18.303Z,10.80
2022-10-31T06:45:41.467Z,10.80
2022-10-31T06:56:22.003Z,11.10
2022-10-31T07:06:51.856Z,11.20
2022-10-31T07:17:16.689Z,11.60
2022-10-31T07:27:43.599Z,11.60
2022-10-31T07:38:12.070Z,12.10
2022-10-31T07:48:35.311Z,13.20
2022-10-31T07:59:15.732Z,13.50
2022-10-31T08:09:39.083Z,13.90
2022-10-31T08:20:12.582Z,14.20
2022-10-31T08:30:42.410Z,14.30
2022-10-31T08:41:26.740Z,14.60
2022-10-31T08:51:50.730Z,14.70
2022-10-31T09:02:14.873Z,15.40
2022-10-31T09:12:37.954Z,15.80
2022-10-31T09:23:19.862Z,15.30
2022-10-31T09:33:43.140Z,15.50
2022-10-31T09:44:34.194Z,15.60
2022-10-31T09:55:01.562Z,16.50
2022-10-31T10:05:28.574Z,16.20
2022-10-31T10:16:11.143Z,16.40
2022-10-31T10:26:38.117Z,17.10
2022-10-31T10:37:04.966Z,17.30
2022-10-31T10:47:41.430Z,18.60
2022-10-31T10:58:05.728Z,17.80
2022-10-31T11:08:28.092Z,17.40
2022-10-31T11:18:51.363Z,17.70
2022-10-31T11:29:16.546Z,18.10
2022-10-31T11:39:43.426Z,18.90
2022-10-31T11:50:13.007Z,17.90
2022-10-31T12:00:39.637Z,18.60
2022-10-31T12:11:13.878Z,18.30
2022-10-31T12:21:54.465Z,18.60
2022-10-31T12:32:30.129Z,19.90
2022-10-31T12:43:05.722Z,20.40
2022-10-31T12:53:40.301Z,19.70
2022-10-31T13:04:06.719Z,19.70
2022-10-31T13:14:34.657Z,20.10
2022-10-31T13:25:04.292Z,19.80
2022-10-31T13:35:31.459Z,20.30
2022-10-31T13:46:25.190Z,20.20
2022-10-31T13:57:33.883Z,19.90
2022-10-31T14:08:25.786Z,19.50
2022-10-31T14:18:58.922Z,19.20
2022-10-31T14:29:27.903Z,18.50
2022-10-31T14:40:15.283Z,18.20
2022-10-31T14:50:46.390Z,18.00
2022-10-31T15:01:09.243Z,17.80
2022-10-31T15:11:39.283Z,17.40
2022-10-31T15:22:00.769Z,17.00
2022-10-31T15:32:25.832Z,16.40
2022-10-31T15:42:52.655Z,16.00
2022-10-31T15:53:20.427Z,15.70
2022-10-31T16:03:42.939Z,15.40
2022-10-31T16:14:08.468Z,15.20
2022-10-31T16:24:33.781Z,14.90
2022-10-31T16:35:26.726Z,14.70
2022-10-31T16:45:49.850Z,14.70
2022-10-31T16:56:20.614Z,14.60
2022-10-31T17:06:44.298Z,14.50
2022-10-31T17:17:09.506Z,14.30
2022-10-31T17:27:30.931Z,14.20
2022-10-31T17:37:53.893Z,14.10
2022-10-31T17:48:16.587Z,14.10
2022-10-31T17:58:41.227Z,13.90
2022-10-31T18:09:06.907Z,13.90
2022-10-31T18:19:29.691Z,13.80
2022-10-31T18:29:53.716Z,13.80
2022-10-31T18:40:17.031Z,13.70
2022-10-31T18:50:41.849Z,13.60
2022-10-31T19:02:17.288Z,13.50
2022-10-31T19:12:42.768Z,13.60
2022-10-31T19:23:04.804Z,13.50
2022-10-31T19:33:34.917Z,13.40
2022-10-31T19:44:00.259Z,13.10
2022-10-31T19:54:23.545Z,13.00
2022-10-31T20:04:45.462Z,12.90
2022-10-31T20:15:09.206Z,13.00
2022-10-31T20:25:32.359Z,12.80
2022-10-31T20:35:55.067Z,12.90
2022-10-31T20:46:21.224Z,12.90
2022-10-31T20:56:43.797Z,12.90
2022-10-31T21:07:05.590Z,12.90
2022-10-31T21:17:29.690Z,13.10
2022-10-31T21:27:53.169Z,13.00
2022-10-31T21:38:15.876Z,12.80
2022-10-31T21:48:39.066Z,12.80
2022-10-31T21:59:01.924Z,12.70
2022-10-31T22:09:23.762Z,12.70
2022-10-31T22:19:46.888Z,12.60
2022-10-31T22:30:09.821Z,12.60
2022-10-31T22:40:34.292Z,12.60
2022-10-31T22:50:55.897Z,12.70
2022-10-31T23:01:20.629Z,12.90
2022-10-31T23:11:42.803Z,13.00
2022-10-31T23:22:05.610Z,13.10
2022-10-31T23:32:30.221Z,13.20
2022-10-31T23:42:53.346Z,13.30
2022-10-31T23:53:14.872Z,13.30
